sensor_id;sensor_type;location;lat;lon;timestamp;pressure;altitude;pressure_sealevel;temperature;humidity
3917;BME280;1973;50.518;7.318;2022-07-23T00:01:03;101016.28;;;20.99;100.00
3917;BME280;1973;50.518;7.318;2022-07-23T00:03:29;101025.78;;;20.98;100.00
3917;BME280;1973;50.518;7.318;2022-07-23T00:05:56;101030.28;;;20.99;100.00
3917;BME280;1973;50.518;7.318;2022-07-23T00:08:22;101031.94;;;21.00;100.00
3917;BME280;1973;50.518;7.318;2022-07-23T00:10:49;101025.22;;;21.01;100.00
3917;BME280;1973;50.518;7.318;2022-07-23T00:13:16;101024.69;;;20.99;100.00
3917;BME280;1973;50.518;7.318;2022-07-23T00:15:42;101023.25;;;21.01;100.00
3917;BME280;1973;50.518;7.318;2022-07-23T00:18:09;101028.56;;;21.03;100.00
3917;BME280;1973;50.518;7.318;2022-07-23T00:20:35;101021.00;;;21.03;100.00
3917;BME280;1973;50.518;7.318;2022-07-23T00:23:02;101010.09;;;21.02;100.00
3917;BME280;1973;50.518;7.318;2022-07-23T00:25:28;101006.72;;;21.00;100.00
3917;BME280;1973;50.518;7.318;2022-07-23T00:27:58;101008.13;;;20.97;100.00
3917;BME280;1973;50.518;7.318;2022-07-23T00:30:24;100994.41;;;20.96;100.00
3917;BME280;1973;50.518;7.318;2022-07-23T00:32:54;101007.28;;;20.97;100.00
3917;BME280;1973;50.518;7.318;2022-07-23T00:35:26;101005.06;;;20.99;100.00
3917;BME280;1973;50.518;7.318;2022-07-23T00:37:54;101011.78;;;20.98;100.00
3917;BME280;1973;50.518;7.318;2022-07-23T00:40:21;101005.88;;;20.99;100.00
3917;BME280;1973;50.518;7.318;2022-07-23T00:42:48;101003.66;;;21.01;100.00
3917;BME280;1973;50.518;7.318;2022-07-23T00:45:14;100990.78;;;21.00;100.00
3917;BME280;1973;50.518;7.318;2022-07-23T00:47:41;100999.47;;;20.99;100.00
3917;BME280;1973;50.518;7.318;2022-07-23T00:50:09;101004.22;;;20.98;100.00
3917;BME280;1973;50.518;7.318;2022-07-23T00:52:37;100999.47;;;20.99;100.00
3917;BME280;1973;50.518;7.318;2022-07-23T00:55:05;101009.53;;;21.00;100.00
3917;BME280;1973;50.518;7.318;2022-07-23T00:57:32;101018.22;;;20.98;100.00
3917;BME280;1973;50.518;7.318;2022-07-23T00:59:59;101027.47;;;20.99;100.00
3917;BME280;1973;50.518;7.318;2022-07-23T01:02:26;101021.88;;;20.99;100.00
3917;BME280;1973;50.518;7.318;2022-07-23T01:04:53;101016.28;;;20.99;100.00
3917;BME280;1973;50.518;7.318;2022-07-23T01:07:20;101023.25;;;20.96;100.00
3917;BME280;1973;50.518;7.318;2022-07-23T01:09:48;101031.09;;;20.94;100.00
3917;BME280;1973;50.518;7.318;2022-07-23T01:12:15;101028.03;;;20.91;100.00
3917;BME280;1973;50.518;7.318;2022-07-23T01:14:41;101013.75;;;20.87;100.00
3917;BME280;1973;50.518;7.318;2022-07-23T01:17:08;101012.91;;;20.86;100.00
3917;BME280;1973;50.518;7.318;2022-07-23T01:19:34;101014.00;;;20.80;100.00
3917;BME280;1973;50.518;7.318;2022-07-23T01:22:03;100999.44;;;20.78;100.00
3917;BME280;1973;50.518;7.318;2022-07-23T01:24:30;100999.44;;;20.73;100.00
3917;BME280;1973;50.518;7.318;2022-07-23T01:26:57;101002.78;;;20.70;100.00
3917;BME280;1973;50.518;7.318;2022-07-23T01:29:23;100995.22;;;20.66;100.00
3917;BME280;1973;50.518;7.318;2022-07-23T01:31:50;100990.19;;;20.63;100.00
3917;BME280;1973;50.518;7.318;2022-07-23T01:34:17;100991.03;;;20.58;100.00
3917;BME280;1973;50.518;7.318;2022-07-23T01:36:43;100978.72;;;20.54;100.00
3917;BME280;1973;50.518;7.318;2022-07-23T01:39:10;100985.97;;;20.50;100.00
3917;BME280;1973;50.518;7.318;2022-07-23T01:41:36;100985.69;;;20.47;100.00
3917;BME280;1973;50.518;7.318;2022-07-23T01:44:03;100991.81;;;20.44;100.00
3917;BME280;1973;50.518;7.318;2022-07-23T01:46:29;100993.78;;;20.38;100.00
3917;BME280;1973;50.518;7.318;2022-07-23T01:48:56;100994.91;;;20.32;100.00
3917;BME280;1973;50.518;7.318;2022-07-23T01:51:22;100988.72;;;20.30;100.00
3917;BME280;1973;50.518;7.318;2022-07-23T01:53:49;100986.44;;;20.27;100.00
3917;BME280;1973;50.518;7.318;2022-07-23T01:56:15;100992.03;;;20.27;100.00
3917;BME280;1973;50.518;7.318;2022-07-23T01:58:42;100986.44;;;20.27;100.00
3917;BME280;1973;50.518;7.318;2022-07-23T02:01:08;100989.50;;;20.25;100.00
3917;BME280;1973;50.518;7.318;2022-07-23T02:03:36;100984.19;;;20.24;100.00
3917;BME280;1973;50.518;7.318;2022-07-23T02:06:02;100998.19;;;20.24;100.00
3917;BME280;1973;50.518;7.318;2022-07-23T02:08:29;100993.16;;;20.21;100.00
3917;BME280;1973;50.518;7.318;2022-07-23T02:10:55;101002.66;;;20.20;100.00
3917;BME280;1973;50.518;7.318;2022-07-23T02:13:22;100993.66;;;20.18;100.00
3917;BME280;1973;50.518;7.318;2022-07-23T02:15:48;100989.47;;;20.15;100.00
3917;BME280;1973;50.518;7.318;2022-07-23T02:18:15;100985.28;;;20.13;100.00
3917;BME280;1973;50.518;7.318;2022-07-23T02:20:41;100979.94;;;20.11;100.00
3917;BME280;1973;50.518;7.318;2022-07-23T02:23:08;100976.03;;;20.07;100.00
3917;BME280;1973;50.518;7.318;2022-07-23T02:25:34;100978.53;;;20.04;100.00
3917;BME280;1973;50.518;7.318;2022-07-23T02:28:01;100991.38;;;20.00;100.00
3917;BME280;1973;50.518;7.318;2022-07-23T02:30:28;100992.22;;;19.95;100.00
3917;BME280;1973;50.518;7.318;2022-07-23T02:32:55;100993.56;;;19.87;100.00
3917;BME280;1973;50.518;7.318;2022-07-23T02:35:21;100986.25;;;19.81;100.00
3917;BME280;1973;50.518;7.318;2022-07-23T02:37:47;100988.19;;;19.76;100.00
3917;BME280;1973;50.518;7.318;2022-07-23T02:40:16;100986.75;;;19.68;100.00
3917;BME280;1973;50.518;7.318;2022-07-23T02:42:43;100991.47;;;19.63;100.00
3917;BME280;1973;50.518;7.318;2022-07-23T02:45:10;100988.66;;;19.58;100.00
3917;BME280;1973;50.518;7.318;2022-07-23T02:47:36;100989.47;;;19.53;100.00
3917;BME280;1973;50.518;7.318;2022-07-23T02:50:03;100986.63;;;19.48;100.00
3917;BME280;1973;50.518;7.318;2022-07-23T02:52:31;100984.94;;;19.42;100.00
3917;BME280;1973;50.518;7.318;2022-07-23T02:54:57;100992.66;;;19.35;100.00
3917;BME280;1973;50.518;7.318;2022-07-23T02:57:24;100994.31;;;19.31;100.00
3917;BME280;1973;50.518;7.318;2022-07-23T02:59:50;100993.41;;;19.25;100.00
3917;BME280;1973;50.518;7.318;2022-07-23T03:02:17;100996.44;;;19.19;100.00
3917;BME280;1973;50.518;7.318;2022-07-23T03:04:43;100989.72;;;19.15;100.00
3917;BME280;1973;50.518;7.318;2022-07-23T03:07:10;100996.13;;;19.10;100.00
3917;BME280;1973;50.518;7.318;2022-07-23T03:09:37;100996.91;;;19.06;100.00
3917;BME280;1973;50.518;7.318;2022-07-23T03:12:03;101002.44;;;19.01;100.00
3917;BME280;1973;50.518;7.318;2022-07-23T03:14:35;101010.50;;;18.97;100.00
3917;BME280;1973;50.518;7.318;2022-07-23T03:17:01;101000.75;;;18.94;100.00
3917;BME280;1973;50.518;7.318;2022-07-23T03:19:28;100997.34;;;18.92;100.00
3917;BME280;1973;50.518;7.318;2022-07-23T03:21:54;100995.63;;;18.86;100.00
3917;BME280;1973;50.518;7.318;2022-07-23T03:24:21;100998.97;;;18.83;100.00
3917;BME280;1973;50.518;7.318;2022-07-23T03:26:49;100990.53;;;18.78;100.00
3917;BME280;1973;50.518;7.318;2022-07-23T03:29:16;100996.34;;;18.72;100.00
3917;BME280;1973;50.518;7.318;2022-07-23T03:31:43;100999.38;;;18.70;100.00
3917;BME280;1973;50.518;7.318;2022-07-23T03:34:10;101001.84;;;18.67;100.00
3917;BME280;1973;50.518;7.318;2022-07-23T03:36:36;101001.28;;;18.65;100.00
3917;BME280;1973;50.518;7.318;2022-07-23T03:39:04;101006.88;;;18.65;100.00
3917;BME280;1973;50.518;7.318;2022-07-23T03:41:31;101017.44;;;18.63;100.00
3917;BME280;1973;50.518;7.318;2022-07-23T03:43:57;101015.47;;;18.58;100.00
3917;BME280;1973;50.518;7.318;2022-07-23T03:46:24;101018.75;;;18.55;100.00
3917;BME280;1973;50.518;7.318;2022-07-23T03:48:50;101025.44;;;18.54;100.00
3917;BME280;1973;50.518;7.318;2022-07-23T03:51:23;101033.81;;;18.54;100.00
3917;BME280;1973;50.518;7.318;2022-07-23T03:53:50;101034.00;;;18.47;100.00
3917;BME280;1973;50.518;7.318;2022-07-23T03:56:16;101035.94;;;18.47;100.00
3917;BME280;1973;50.518;7.318;2022-07-23T03:58:43;101044.31;;;18.47;100.00
3917;BME280;1973;50.518;7.318;2022-07-23T04:01:10;101048.75;;;18.48;100.00
3917;BME280;1973;50.518;7.318;2022-07-23T04:03:37;101040.91;;;18.45;100.00
3917;BME280;1973;50.518;7.318;2022-07-23T04:06:03;101043.72;;;18.45;100.00
3917;BME280;1973;50.518;7.318;2022-07-23T04:08:30;101050.38;;;18.44;100.00
3917;BME280;1973;50.518;7.318;2022-07-23T04:10:56;101055.16;;;18.43;100.00
3917;BME280;1973;50.518;7.318;2022-07-23T04:13:23;101046.50;;;18.45;100.00
3917;BME280;1973;50.518;7.318;2022-07-23T04:15:49;101050.13;;;18.45;100.00
3917;BME280;1973;50.518;7.318;2022-07-23T04:18:17;101057.97;;;18.48;100.00
3917;BME280;1973;50.518;7.318;2022-07-23T04:20:44;101057.97;;;18.48;100.00
3917;BME280;1973;50.518;7.318;2022-07-23T04:23:11;101054.44;;;18.53;100.00
3917;BME280;1973;50.518;7.318;2022-07-23T04:25:38;101064.50;;;18.54;100.00
3917;BME280;1973;50.518;7.318;2022-07-23T04:28:04;101061.19;;;18.57;100.00
3917;BME280;1973;50.518;7.318;2022-07-23T04:30:31;101058.63;;;18.56;100.00
3917;BME280;1973;50.518;7.318;2022-07-23T04:32:57;101054.75;;;18.57;100.00
3917;BME280;1973;50.518;7.318;2022-07-23T04:35:24;101059.50;;;18.56;100.00
3917;BME280;1973;50.518;7.318;2022-07-23T04:37:51;101054.75;;;18.57;100.00
3917;BME280;1973;50.518;7.318;2022-07-23T04:40:18;101059.50;;;18.56;100.00
3917;BME280;1973;50.518;7.318;2022-07-23T04:42:44;101055.59;;;18.57;100.00
3917;BME280;1973;50.518;7.318;2022-07-23T04:45:11;101066.75;;;18.57;100.00
3917;BME280;1973;50.518;7.318;2022-07-23T04:47:39;101065.06;;;18.56;100.00
3917;BME280;1973;50.518;7.318;2022-07-23T04:50:05;101068.94;;;18.55;100.00
3917;BME280;1973;50.518;7.318;2022-07-23T04:52:32;101068.13;;;18.55;100.00
3917;BME280;1973;50.518;7.318;2022-07-23T04:54:58;101072.25;;;18.52;100.00
3917;BME280;1973;50.518;7.318;2022-07-23T04:57:25;101070.81;;;18.49;100.00
3917;BME280;1973;50.518;7.318;2022-07-23T04:59:51;101058.25;;;18.47;100.00
3917;BME280;1973;50.518;7.318;2022-07-23T05:02:18;101066.63;;;18.47;100.00
3917;BME280;1973;50.518;7.318;2022-07-23T05:04:44;101060.19;;;18.46;100.00
3917;BME280;1973;50.518;7.318;2022-07-23T05:07:11;101060.50;;;18.50;100.00
3917;BME280;1973;50.518;7.318;2022-07-23T05:09:38;101062.81;;;18.53;100.00
3917;BME280;1973;50.518;7.318;2022-07-23T05:12:04;101068.44;;;18.58;100.00
3917;BME280;1973;50.518;7.318;2022-07-23T05:14:30;101064.34;;;18.66;100.00
3917;BME280;1973;50.518;7.318;2022-07-23T05:16:57;101068.03;;;18.71;100.00
3917;BME280;1973;50.518;7.318;2022-07-23T05:19:23;101068.66;;;18.78;100.00
3917;BME280;1973;50.518;7.318;2022-07-23T05:21:50;101079.91;;;18.88;100.00
3917;BME280;1973;50.518;7.318;2022-07-23T05:24:17;101072.75;;;18.98;100.00
3917;BME280;1973;50.518;7.318;2022-07-23T05:26:43;101075.63;;;19.08;100.00
3917;BME280;1973;50.518;7.318;2022-07-23T05:29:10;101073.78;;;19.18;100.00
3917;BME280;1973;50.518;7.318;2022-07-23T05:31:36;101074.72;;;19.29;100.00
3917;BME280;1973;50.518;7.318;2022-07-23T05:34:03;101077.28;;;19.35;100.00
3917;BME280;1973;50.518;7.318;2022-07-23T05:36:31;101081.25;;;19.39;100.00
3917;BME280;1973;50.518;7.318;2022-07-23T05:38:58;101081.56;;;19.43;100.00
3917;BME280;1973;50.518;7.318;2022-07-23T05:41:25;101070.72;;;19.47;100.00
3917;BME280;1973;50.518;7.318;2022-07-23T05:43:52;101075.75;;;19.50;100.00
3917;BME280;1973;50.518;7.318;2022-07-23T05:46:19;101079.66;;;19.49;100.00
3917;BME280;1973;50.518;7.318;2022-07-23T05:48:45;101071.88;;;19.51;100.00
3917;BME280;1973;50.518;7.318;2022-07-23T05:51:23;101097.88;;;19.56;100.00
3917;BME280;1973;50.518;7.318;2022-07-23T05:53:50;101096.47;;;19.54;100.00
3917;BME280;1973;50.518;7.318;2022-07-23T05:56:17;101091.75;;;19.59;100.00
3917;BME280;1973;50.518;7.318;2022-07-23T05:58:44;101089.00;;;19.64;100.00
3917;BME280;1973;50.518;7.318;2022-07-23T06:01:11;101095.75;;;19.73;100.00
3917;BME280;1973;50.518;7.318;2022-07-23T06:03:40;101103.06;;;19.79;100.00
3917;BME280;1973;50.518;7.318;2022-07-23T06:06:07;101093.59;;;19.85;100.00
3917;BME280;1973;50.518;7.318;2022-07-23T06:08:33;101098.13;;;19.91;100.00
3917;BME280;1973;50.518;7.318;2022-07-23T06:11:00;101091.44;;;19.98;100.00
3917;BME280;1973;50.518;7.318;2022-07-23T06:13:27;101090.34;;;20.04;100.00
3917;BME280;1973;50.518;7.318;2022-07-23T06:15:54;101097.66;;;20.10;100.00
3917;BME280;1973;50.518;7.318;2022-07-23T06:18:20;101094.34;;;20.18;100.00
3917;BME280;1973;50.518;7.318;2022-07-23T06:20:47;101098.31;;;20.27;100.00
3917;BME280;1973;50.518;7.318;2022-07-23T06:23:16;101095.03;;;20.35;100.00
3917;BME280;1973;50.518;7.318;2022-07-23T06:25:43;101100.91;;;20.44;100.00
3917;BME280;1973;50.518;7.318;2022-07-23T06:28:09;101097.88;;;20.50;100.00
3917;BME280;1973;50.518;7.318;2022-07-23T06:30:36;101101.81;;;20.59;100.00
3917;BME280;1973;50.518;7.318;2022-07-23T06:33:04;101102.13;;;20.63;100.00
3917;BME280;1973;50.518;7.318;2022-07-23T06:35:30;101108.59;;;20.68;100.00
3917;BME280;1973;50.518;7.318;2022-07-23T06:37:57;101107.47;;;20.69;100.00
3917;BME280;1973;50.518;7.318;2022-07-23T06:40:23;101104.09;;;20.67;100.00
3917;BME280;1973;50.518;7.318;2022-07-23T06:42:50;101121.44;;;20.64;100.00
3917;BME280;1973;50.518;7.318;2022-07-23T06:45:16;101121.16;;;20.61;100.00
3917;BME280;1973;50.518;7.318;2022-07-23T06:47:43;101126.16;;;20.59;100.00
3917;BME280;1973;50.518;7.318;2022-07-23T06:50:09;101125.31;;;20.53;100.00
3917;BME280;1973;50.518;7.318;2022-07-23T06:52:36;101140.41;;;20.52;100.00
3917;BME280;1973;50.518;7.318;2022-07-23T06:55:08;101133.13;;;20.46;100.00
3917;BME280;1973;50.518;7.318;2022-07-23T06:57:34;101129.19;;;20.42;100.00
3917;BME280;1973;50.518;7.318;2022-07-23T07:00:01;101126.34;;;20.37;100.00
3917;BME280;1973;50.518;7.318;2022-07-23T07:02:28;101126.88;;;20.29;100.00
3917;BME280;1973;50.518;7.318;2022-07-23T07:04:55;101130.78;;;20.28;100.00
3917;BME280;1973;50.518;7.318;2022-07-23T07:07:30;101138.06;;;20.29;100.00
3917;BME280;1973;50.518;7.318;2022-07-23T07:09:56;101126.88;;;20.29;100.00
3917;BME280;1973;50.518;7.318;2022-07-23T07:12:23;101141.38;;;20.26;100.00
3917;BME280;1973;50.518;7.318;2022-07-23T07:14:49;101120.69;;;20.27;100.00
3917;BME280;1973;50.518;7.318;2022-07-23T07:17:16;101143.06;;;20.27;100.00
3917;BME280;1973;50.518;7.318;2022-07-23T07:19:42;101138.91;;;20.29;100.00
3917;BME280;1973;50.518;7.318;2022-07-23T07:22:09;101145.94;;;20.32;100.00
3917;BME280;1973;50.518;7.318;2022-07-23T07:24:35;101141.47;;;20.36;100.00
3917;BME280;1973;50.518;7.318;2022-07-23T07:27:04;101145.13;;;20.42;100.00
3917;BME280;1973;50.518;7.318;2022-07-23T07:29:31;101151.84;;;20.46;100.00
3917;BME280;1973;50.518;7.318;2022-07-23T07:31:57;101151.00;;;20.45;100.00
3917;BME280;1973;50.518;7.318;2022-07-23T07:34:24;101152.41;;;20.48;100.00
3917;BME280;1973;50.518;7.318;2022-07-23T07:36:50;101160.28;;;20.51;100.00
3917;BME280;1973;50.518;7.318;2022-07-23T07:39:17;101159.44;;;20.55;100.00
3917;BME280;1973;50.518;7.318;2022-07-23T07:41:43;101164.81;;;20.62;100.00
3917;BME280;1973;50.518;7.318;2022-07-23T07:44:10;101166.50;;;20.68;100.00
3917;BME280;1973;50.518;7.318;2022-07-23T07:46:36;101162.06;;;20.72;100.00
3917;BME280;1973;50.518;7.318;2022-07-23T07:49:03;101167.38;;;20.78;100.00
3917;BME280;1973;50.518;7.318;2022-07-23T07:51:31;101172.44;;;20.81;100.00
3917;BME280;1973;50.518;7.318;2022-07-23T07:53:59;101171.63;;;20.91;100.00
3917;BME280;1973;50.518;7.318;2022-07-23T07:56:26;101161.81;;;20.88;100.00
3917;BME280;1973;50.518;7.318;2022-07-23T07:58:53;101168.84;;;20.96;100.00
3917;BME280;1973;50.518;7.318;2022-07-23T08:01:19;101169.41;;;21.03;100.00
3917;BME280;1973;50.518;7.318;2022-07-23T08:03:47;101171.13;;;21.09;100.00
3917;BME280;1973;50.518;7.318;2022-07-23T08:06:13;101173.66;;;21.11;100.00
3917;BME280;1973;50.518;7.318;2022-07-23T08:08:40;101173.72;;;21.21;100.00
3917;BME280;1973;50.518;7.318;2022-07-23T08:11:06;101169.78;;;21.27;100.00
3917;BME280;1973;50.518;7.318;2022-07-23T08:13:32;101175.41;;;21.32;100.00
3917;BME280;1973;50.518;7.318;2022-07-23T08:15:59;101175.13;;;21.39;100.00
3917;BME280;1973;50.518;7.318;2022-07-23T08:18:26;101175.13;;;21.44;100.00
3917;BME280;1973;50.518;7.318;2022-07-23T08:20:53;101170.94;;;21.51;100.00
3917;BME280;1973;50.518;7.318;2022-07-23T08:23:19;101171.22;;;21.60;100.00
3917;BME280;1973;50.518;7.318;2022-07-23T08:25:46;101168.44;;;21.65;100.00
3917;BME280;1973;50.518;7.318;2022-07-23T08:28:14;101182.19;;;21.76;100.00
3917;BME280;1973;50.518;7.318;2022-07-23T08:30:42;101182.16;;;21.81;100.00
3917;BME280;1973;50.518;7.318;2022-07-23T08:33:14;101179.63;;;21.90;100.00
3917;BME280;1973;50.518;7.318;2022-07-23T08:35:57;101172.06;;;21.96;100.00
3917;BME280;1973;50.518;7.318;2022-07-23T08:38:23;101175.44;;;22.03;100.00
3917;BME280;1973;50.518;7.318;2022-07-23T08:40:53;101177.09;;;22.14;100.00
3917;BME280;1973;50.518;7.318;2022-07-23T08:43:25;101179.34;;;22.22;100.00
3917;BME280;1973;50.518;7.318;2022-07-23T08:45:55;101188.28;;;22.29;100.00
3917;BME280;1973;50.518;7.318;2022-07-23T08:48:28;101174.81;;;22.36;100.00
3917;BME280;1973;50.518;7.318;2022-07-23T08:50:58;101180.41;;;22.41;100.00
3917;BME280;1973;50.518;7.318;2022-07-23T08:53:28;101183.50;;;22.45;100.00
3917;BME280;1973;50.518;7.318;2022-07-23T08:55:57;101179.81;;;22.54;100.00
3917;BME280;1973;50.518;7.318;2022-07-23T08:58:24;101179.78;;;22.59;100.00
3917;BME280;1973;50.518;7.318;2022-07-23T09:00:54;101179.25;;;22.67;100.00
3917;BME280;1973;50.518;7.318;2022-07-23T09:03:25;101176.44;;;22.72;100.00
3917;BME280;1973;50.518;7.318;2022-07-23T09:05:52;101187.34;;;22.79;100.00
3917;BME280;1973;50.518;7.318;2022-07-23T09:08:22;101187.00;;;22.91;100.00
3917;BME280;1973;50.518;7.318;2022-07-23T09:13:51;101169.78;;;23.02;92.52
3917;BME280;1973;50.518;7.318;2022-07-23T09:16:29;101184.66;;;23.13;93.63
3917;BME280;1973;50.518;7.318;2022-07-23T09:19:01;101179.81;;;23.18;95.35
3917;BME280;1973;50.518;7.318;2022-07-23T09:21:29;101176.16;;;23.23;94.40
3917;BME280;1973;50.518;7.318;2022-07-23T09:29:15;101183.34;;;23.44;87.76
3917;BME280;1973;50.518;7.318;2022-07-23T09:31:51;101186.38;;;23.53;86.17
3917;BME280;1973;50.518;7.318;2022-07-23T09:34:20;101185.44;;;23.62;84.03
3917;BME280;1973;50.518;7.318;2022-07-23T09:36:51;101171.34;;;23.67;81.70
3917;BME280;1973;50.518;7.318;2022-07-23T09:39:29;101181.91;;;23.81;74.08
3917;BME280;1973;50.518;7.318;2022-07-23T09:41:57;101175.63;;;23.94;81.22
3917;BME280;1973;50.518;7.318;2022-07-23T09:44:23;101175.56;;;23.99;80.41
3917;BME280;1973;50.518;7.318;2022-07-23T09:46:58;101170.50;;;24.01;74.65
3917;BME280;1973;50.518;7.318;2022-07-23T09:49:25;101177.75;;;24.07;77.39
3917;BME280;1973;50.518;7.318;2022-07-23T09:51:58;101179.41;;;24.13;75.55
3917;BME280;1973;50.518;7.318;2022-07-23T09:54:33;101175.66;;;24.22;72.73
3917;BME280;1973;50.518;7.318;2022-07-23T09:57:10;101176.44;;;24.28;71.36
3917;BME280;1973;50.518;7.318;2022-07-23T09:59:43;101169.63;;;24.34;74.57
3917;BME280;1973;50.518;7.318;2022-07-23T10:02:11;101172.88;;;24.46;73.58
3917;BME280;1973;50.518;7.318;2022-07-23T10:04:39;101175.38;;;24.48;72.80
3917;BME280;1973;50.518;7.318;2022-07-23T10:07:07;101178.13;;;24.53;71.06
3917;BME280;1973;50.518;7.318;2022-07-23T10:09:40;101174.59;;;24.66;69.12
3917;BME280;1973;50.518;7.318;2022-07-23T10:12:12;101163.97;;;24.82;66.86
3917;BME280;1973;50.518;7.318;2022-07-23T10:14:39;101151.47;;;24.93;68.00
3917;BME280;1973;50.518;7.318;2022-07-23T10:17:07;101160.59;;;25.03;68.05
3917;BME280;1973;50.518;7.318;2022-07-23T10:19:34;101165.25;;;25.13;66.55
3917;BME280;1973;50.518;7.318;2022-07-23T10:22:31;101156.66;;;25.23;62.36
3917;BME280;1973;50.518;7.318;2022-07-23T10:25:22;101155.38;;;25.34;61.94
3917;BME280;1973;50.518;7.318;2022-07-23T10:28:06;101158.31;;;25.43;59.53
3917;BME280;1973;50.518;7.318;2022-07-23T10:36:09;101151.47;;;25.67;58.75
3917;BME280;1973;50.518;7.318;2022-07-23T10:39:04;101142.13;;;25.86;56.21
3917;BME280;1973;50.518;7.318;2022-07-23T10:41:36;101143.69;;;25.92;58.00
3917;BME280;1973;50.518;7.318;2022-07-23T10:46:34;101140.16;;;25.86;56.01
3917;BME280;1973;50.518;7.318;2022-07-23T10:49:23;101128.88;;;26.00;53.50
3917;BME280;1973;50.518;7.318;2022-07-23T10:54:44;101129.94;;;26.17;54.42
3917;BME280;1973;50.518;7.318;2022-07-23T10:57:12;101137.53;;;26.22;53.42
3917;BME280;1973;50.518;7.318;2022-07-23T11:00:09;101131.47;;;26.42;49.69
3917;BME280;1973;50.518;7.318;2022-07-23T11:02:42;101128.66;;;26.56;52.29
3917;BME280;1973;50.518;7.318;2022-07-23T11:05:14;101127.91;;;26.64;50.92
3917;BME280;1973;50.518;7.318;2022-07-23T11:10:45;101129.03;;;26.77;46.99
3917;BME280;1973;50.518;7.318;2022-07-23T11:32:06;101115.91;;;27.88;42.15
3917;BME280;1973;50.518;7.318;2022-07-23T11:34:42;101118.66;;;28.02;40.24
3917;BME280;1973;50.518;7.318;2022-07-23T11:37:11;101114.59;;;28.17;41.14
3917;BME280;1973;50.518;7.318;2022-07-23T11:39:39;101107.59;;;28.14;39.99
3917;BME280;1973;50.518;7.318;2022-07-23T11:42:07;101103.19;;;28.30;40.12
3917;BME280;1973;50.518;7.318;2022-07-23T11:44:38;101098.72;;;28.46;40.29
3917;BME280;1973;50.518;7.318;2022-07-23T11:47:09;101093.28;;;28.59;40.62
3917;BME280;1973;50.518;7.318;2022-07-23T11:49:36;101093.75;;;28.52;39.82
3917;BME280;1973;50.518;7.318;2022-07-23T11:54:31;101103.66;;;28.72;39.11
3917;BME280;1973;50.518;7.318;2022-07-23T11:57:05;101103.84;;;28.75;38.99
3917;BME280;1973;50.518;7.318;2022-07-23T11:59:33;101100.53;;;28.90;38.87
3917;BME280;1973;50.518;7.318;2022-07-23T12:02:03;101090.53;;;28.93;37.89
3917;BME280;1973;50.518;7.318;2022-07-23T12:04:44;101101.03;;;29.01;36.95
3917;BME280;1973;50.518;7.318;2022-07-23T12:07:37;101095.88;;;29.03;36.52
3917;BME280;1973;50.518;7.318;2022-07-23T12:12:48;101100.44;;;29.30;37.20
3917;BME280;1973;50.518;7.318;2022-07-23T12:15:23;101099.78;;;29.41;38.43
3917;BME280;1973;50.518;7.318;2022-07-23T12:17:51;101101.09;;;29.53;39.01
3917;BME280;1973;50.518;7.318;2022-07-23T12:20:23;101102.75;;;29.71;39.04
3917;BME280;1973;50.518;7.318;2022-07-23T12:22:53;101102.72;;;29.79;38.44
3917;BME280;1973;50.518;7.318;2022-07-23T12:25:24;101096.69;;;29.98;38.09
3917;BME280;1973;50.518;7.318;2022-07-23T12:28:08;101094.50;;;30.04;36.88
3917;BME280;1973;50.518;7.318;2022-07-23T12:33:15;101095.94;;;30.18;38.21
3917;BME280;1973;50.518;7.318;2022-07-23T12:35:44;101092.03;;;30.31;37.98
3917;BME280;1973;50.518;7.318;2022-07-23T12:38:13;101093.88;;;30.36;38.08
3917;BME280;1973;50.518;7.318;2022-07-23T12:40:57;101087.97;;;30.50;37.23
3917;BME280;1973;50.518;7.318;2022-07-23T12:43:27;101088.38;;;30.69;38.04
3917;BME280;1973;50.518;7.318;2022-07-23T12:51:29;101097.91;;;30.93;37.55
3917;BME280;1973;50.518;7.318;2022-07-23T12:54:04;101090.94;;;31.12;37.21
3917;BME280;1973;50.518;7.318;2022-07-23T12:56:35;101098.72;;;31.23;37.12
3917;BME280;1973;50.518;7.318;2022-07-23T13:01:44;101100.09;;;31.17;36.18
3917;BME280;1973;50.518;7.318;2022-07-23T13:04:21;101096.75;;;31.15;36.42
3917;BME280;1973;50.518;7.318;2022-07-23T13:06:59;101093.28;;;31.30;36.01
3917;BME280;1973;50.518;7.318;2022-07-23T13:09:33;101101.44;;;31.41;37.08
3917;BME280;1973;50.518;7.318;2022-07-23T13:12:07;101093.72;;;31.62;36.69
3917;BME280;1973;50.518;7.318;2022-07-23T13:14:36;101095.19;;;31.80;37.10
3917;BME280;1973;50.518;7.318;2022-07-23T13:17:03;101080.31;;;31.74;36.33
3917;BME280;1973;50.518;7.318;2022-07-23T13:19:32;101095.25;;;31.59;36.31
3917;BME280;1973;50.518;7.318;2022-07-23T13:21:58;101088.28;;;31.69;36.49
3917;BME280;1973;50.518;7.318;2022-07-23T13:24:29;101096.03;;;31.80;36.70
3917;BME280;1973;50.518;7.318;2022-07-23T13:26:56;101082.66;;;32.05;36.60
3917;BME280;1973;50.518;7.318;2022-07-23T13:29:24;101097.31;;;32.16;36.28
3917;BME280;1973;50.518;7.318;2022-07-23T13:31:51;101085.47;;;32.26;35.43
3917;BME280;1973;50.518;7.318;2022-07-23T13:34:17;101091.41;;;32.45;35.99
3917;BME280;1973;50.518;7.318;2022-07-23T13:36:45;101082.97;;;32.49;35.57
3917;BME280;1973;50.518;7.318;2022-07-23T13:39:12;101083.00;;;32.61;35.20
3917;BME280;1973;50.518;7.318;2022-07-23T13:41:38;101070.63;;;32.69;35.83
3917;BME280;1973;50.518;7.318;2022-07-23T13:44:05;101068.84;;;32.89;35.89
3917;BME280;1973;50.518;7.318;2022-07-23T13:46:33;101066.22;;;32.96;35.10
3917;BME280;1973;50.518;7.318;2022-07-23T13:49:01;101079.97;;;33.06;34.96
3917;BME280;1973;50.518;7.318;2022-07-23T13:51:28;101075.59;;;32.96;34.51
3917;BME280;1973;50.518;7.318;2022-07-23T13:53:55;101073.00;;;32.79;34.12
3917;BME280;1973;50.518;7.318;2022-07-23T13:56:21;101073.72;;;32.76;34.21
3917;BME280;1973;50.518;7.318;2022-07-23T13:58:48;101066.47;;;32.78;34.23
3917;BME280;1973;50.518;7.318;2022-07-23T14:01:14;101066.09;;;32.80;33.74
3917;BME280;1973;50.518;7.318;2022-07-23T14:03:43;101072.88;;;32.63;34.13
3917;BME280;1973;50.518;7.318;2022-07-23T14:06:10;101070.53;;;32.65;34.37